createdAt,value
2023-03-01T00:02:20.241Z,-6.42
2023-03-01T00:07:22.098Z,-6.42
2023-03-01T00:12:23.924Z,-6.53
2023-03-01T00:17:25.728Z,-6.41
2023-03-01T00:22:29.539Z,-6.42
2023-03-01T00:27:31.383Z,-6.40
2023-03-01T00:32:33.245Z,-6.39
2023-03-01T00:37:35.057Z,-6.44
2023-03-01T00:42:36.968Z,-6.53
2023-03-01T00:47:38.818Z,-6.67
2023-03-01T00:52:40.691Z,-6.80
2023-03-01T00:57:42.676Z,-6.92
2023-03-01T01:02:44.692Z,-6.88
2023-03-01T01:07:46.571Z,-6.85
2023-03-01T01:12:48.698Z,-6.85
2023-03-01T01:17:50.699Z,-6.78
2023-03-01T01:22:52.569Z,-6.89
2023-03-01T01:27:54.412Z,-6.92
2023-03-01T01:32:56.250Z,-7.02
2023-03-01T01:37:58.135Z,-7.15
2023-03-01T01:42:59.983Z,-7.21
2023-03-01T01:48:27.555Z,-7.30
2023-03-01T01:53:30.204Z,-7.29
2023-03-01T01:58:32.077Z,-7.30
2023-03-01T02:03:40.800Z,-7.31
2023-03-01T02:08:44.518Z,-7.43
2023-03-01T02:13:48.449Z,-7.44
2023-03-01T02:18:51.738Z,-7.59
2023-03-01T02:23:56.684Z,-7.51
2023-03-01T02:28:58.698Z,-7.52
2023-03-01T02:34:01.424Z,-7.58
2023-03-01T02:39:07.352Z,-7.54
2023-03-01T02:44:09.578Z,-7.64
2023-03-01T02:49:38.305Z,-7.81
2023-03-01T02:54:48.173Z,-7.86
2023-03-01T02:59:53.265Z,-8.00
2023-03-01T03:04:55.432Z,-7.96
2023-03-01T03:09:57.475Z,-7.87
2023-03-01T03:14:59.357Z,-7.87
2023-03-01T03:20:01.336Z,-7.87
2023-03-01T03:25:03.181Z,-7.94
2023-03-01T03:30:10.005Z,-7.95
2023-03-01T03:35:12.241Z,-8.05
2023-03-01T03:40:16.585Z,-8.05
2023-03-01T03:45:18.994Z,-8.01
2023-03-01T03:50:20.842Z,-8.05
2023-03-01T03:55:22.939Z,-8.02
2023-03-01T04:00:25.151Z,-8.00
2023-03-01T04:05:27.902Z,-8.13
2023-03-01T04:10:32.032Z,-8.14
2023-03-01T04:15:34.827Z,-8.27
2023-03-01T04:20:37.312Z,-8.21
2023-03-01T04:25:41.028Z,-8.26
2023-03-01T04:30:42.966Z,-8.22
2023-03-01T04:35:45.004Z,-8.28
2023-03-01T04:40:47.091Z,-8.31
2023-03-01T04:45:48.982Z,-8.28
2023-03-01T04:50:50.885Z,-8.34
2023-03-01T04:55:53.104Z,-8.47
2023-03-01T05:00:55.903Z,-8.52
2023-03-01T05:06:00.700Z,-8.46
2023-03-01T05:11:02.532Z,-8.59
2023-03-01T05:16:06.027Z,-8.70
2023-03-01T05:21:17.094Z,-8.59
2023-03-01T05:26:28.370Z,-8.56
2023-03-01T05:31:31.880Z,-8.61
2023-03-01T05:36:34.077Z,-8.60
2023-03-01T05:41:35.921Z,-8.52
2023-03-01T05:46:37.840Z,-8.57
2023-03-01T05:51:39.761Z,-8.59
2023-03-01T05:56:41.615Z,-8.60
2023-03-01T06:01:43.904Z,-8.54
2023-03-01T06:06:45.869Z,-8.43
2023-03-01T06:11:47.773Z,-8.49
2023-03-01T06:16:49.650Z,-8.42
2023-03-01T06:21:51.500Z,-8.26
2023-03-01T06:26:54.806Z,-8.21
2023-03-01T06:31:56.705Z,-8.03
2023-03-01T06:36:58.615Z,-7.82
2023-03-01T06:42:01.100Z,-7.64
2023-03-01T06:47:03.331Z,-7.50
2023-03-01T06:52:05.448Z,-7.28
2023-03-01T06:57:07.323Z,-7.03
2023-03-01T07:02:12.896Z,-6.69
2023-03-01T07:07:14.770Z,-6.47
2023-03-01T07:12:16.802Z,-6.34
2023-03-01T07:17:19.866Z,-6.11
2023-03-01T07:22:21.730Z,-5.84
2023-03-01T07:27:23.572Z,-5.70
2023-03-01T07:32:25.494Z,-5.58
2023-03-01T07:37:27.587Z,-5.39
2023-03-01T07:42:29.467Z,-5.29
2023-03-01T07:47:31.609Z,-5.01
2023-03-01T07:52:33.640Z,-4.80
2023-03-01T07:57:35.492Z,-4.58
2023-03-01T08:02:37.376Z,-4.26
2023-03-01T08:07:39.324Z,-4.03
2023-03-01T08:12:41.184Z,-3.80
2023-03-01T08:17:43.086Z,-3.59
2023-03-01T08:22:44.878Z,-3.46
2023-03-01T08:27:46.702Z,-2.88
2023-03-01T08:32:48.689Z,-2.84
2023-03-01T08:37:50.528Z,-2.62
2023-03-01T08:42:52.397Z,-2.30
2023-03-01T08:47:54.491Z,-2.41
2023-03-01T08:52:56.270Z,-1.95
2023-03-01T08:57:59.983Z,-1.82
2023-03-01T09:03:02.314Z,-1.45
2023-03-01T09:08:04.761Z,-1.44
2023-03-01T09:13:06.618Z,-1.39
2023-03-01T09:18:08.435Z,-1.03
2023-03-01T09:23:10.296Z,-0.87
2023-03-01T09:28:27.683Z,-0.71
2023-03-01T09:33:33.042Z,-0.54
2023-03-01T09:38:35.426Z,0.13
2023-03-01T09:44:25.389Z,0.17
2023-03-01T09:49:34.269Z,0.39
2023-03-01T09:54:36.098Z,0.39
2023-03-01T10:00:08.045Z,0.93
2023-03-01T10:05:47.598Z,0.85
2023-03-01T10:10:50.615Z,1.13
2023-03-01T10:15:58.852Z,1.41
2023-03-01T10:21:03.302Z,1.26
2023-03-01T10:26:35.660Z,1.24
2023-03-01T10:31:50.875Z,1.19
2023-03-01T10:36:57.317Z,1.70
2023-03-01T10:42:19.986Z,2.03
2023-03-01T10:47:23.525Z,1.98
2023-03-01T10:52:30.857Z,1.68
2023-03-01T10:57:42.817Z,1.97
2023-03-01T11:02:48.310Z,3.11
2023-03-01T11:07:51.401Z,2.80
2023-03-01T11:12:57.315Z,3.19
2023-03-01T11:18:12.691Z,5.65
2023-03-01T11:23:16.869Z,6.26
2023-03-01T11:28:22.825Z,6.08
2023-03-01T11:33:34.724Z,7.94
2023-03-01T11:38:38.154Z,8.31
2023-03-01T11:43:42.979Z,8.70
2023-03-01T11:49:03.401Z,8.46
2023-03-01T11:54:14.297Z,7.12
2023-03-01T11:59:32.007Z,8.14
2023-03-01T12:05:18.689Z,7.36
2023-03-01T12:10:29.570Z,6.23
2023-03-01T12:15:40.864Z,6.88
2023-03-01T12:21:21.023Z,7.46
2023-03-01T12:26:34.674Z,7.67
2023-03-01T12:31:45.618Z,7.69
2023-03-01T12:36:47.456Z,8.74
2023-03-01T12:41:51.906Z,9.61
2023-03-01T12:46:56.892Z,9.49
2023-03-01T12:52:17.273Z,9.91
2023-03-01T12:57:28.067Z,8.27
2023-03-01T13:02:38.984Z,7.70
2023-03-01T13:08:10.416Z,9.39
2023-03-01T13:13:20.379Z,9.44
2023-03-01T13:18:26.489Z,9.83
2023-03-01T13:23:31.774Z,8.70
2023-03-01T13:28:36.753Z,6.64
2023-03-01T13:33:57.967Z,8.45
2023-03-01T13:39:02.039Z,8.93
2023-03-01T13:44:12.921Z,9.12
2023-03-01T13:49:21.765Z,8.78
2023-03-01T13:54:32.215Z,9.16
2023-03-01T13:59:34.101Z,7.36
2023-03-01T14:04:36.970Z,8.88
2023-03-01T14:10:01.039Z,5.55
2023-03-01T14:15:11.391Z,5.26
2023-03-01T14:20:22.012Z,3.51
2023-03-01T14:25:34.513Z,3.27
2023-03-01T14:30:40.517Z,3.46
2023-03-01T14:35:42.815Z,3.12
2023-03-01T14:40:44.692Z,3.09
2023-03-01T14:45:51.614Z,3.00
2023-03-01T14:50:53.653Z,2.99
2023-03-01T14:56:01.484Z,2.79
2023-03-01T15:01:05.616Z,2.71
2023-03-01T15:06:09.530Z,2.56
2023-03-01T15:11:14.379Z,2.31
2023-03-01T15:16:23.991Z,2.31
2023-03-01T15:21:29.613Z,2.28
2023-03-01T15:26:36.393Z,2.26
2023-03-01T15:31:39.782Z,2.25
2023-03-01T15:36:50.787Z,2.10
2023-03-01T15:41:52.568Z,2.11
2023-03-01T15:46:54.449Z,2.00
2023-03-01T15:51:56.646Z,1.88
2023-03-01T15:56:58.584Z,1.79
2023-03-01T16:02:00.400Z,1.71
2023-03-01T16:07:02.519Z,1.61
2023-03-01T16:12:04.448Z,1.55
2023-03-01T16:17:06.472Z,1.36
2023-03-01T16:22:10.988Z,1.31
2023-03-01T16:27:12.835Z,1.17
2023-03-01T16:32:14.701Z,1.07
2023-03-01T16:37:17.482Z,0.97
2023-03-01T16:42:19.429Z,0.83
2023-03-01T16:47:21.230Z,0.68
2023-03-01T16:52:23.580Z,0.66
2023-03-01T16:57:25.386Z,0.41
2023-03-01T17:02:27.388Z,0.32
2023-03-01T17:07:34.207Z,0.03
2023-03-01T17:12:36.404Z,-0.13
2023-03-01T17:17:38.228Z,-0.31
2023-03-01T17:22:40.012Z,-0.46
2023-03-01T17:27:41.910Z,-0.62
2023-03-01T17:32:43.948Z,-0.89
2023-03-01T17:37:46.577Z,-1.19
2023-03-01T17:42:48.474Z,-1.43
2023-03-01T17:47:50.483Z,-1.72
2023-03-01T17:52:52.388Z,-1.81
2023-03-01T17:57:54.198Z,-1.96
2023-03-01T18:02:56.141Z,-2.13
2023-03-01T18:07:58.046Z,-2.00
2023-03-01T18:13:00.009Z,-1.90
2023-03-01T18:18:01.881Z,-1.86
2023-03-01T18:23:03.774Z,-1.80
2023-03-01T18:28:05.705Z,-1.89
2023-03-01T18:33:07.539Z,-2.04
2023-03-01T18:38:09.347Z,-2.10
2023-03-01T18:43:11.312Z,-2.16
2023-03-01T18:48:14.381Z,-2.19
2023-03-01T18:53:16.236Z,-2.30
2023-03-01T18:58:18.029Z,-2.41
2023-03-01T19:03:19.816Z,-2.54
2023-03-01T19:08:21.616Z,-2.60
2023-03-01T19:13:23.421Z,-2.73
2023-03-01T19:18:25.279Z,-2.70
2023-03-01T19:23:28.105Z,-2.77
2023-03-01T19:28:30.118Z,-2.81
2023-03-01T19:33:34.207Z,-2.89
2023-03-01T19:38:36.473Z,-2.83
2023-03-01T19:43:38.445Z,-2.89
2023-03-01T19:48:40.514Z,-2.94
2023-03-01T19:53:42.329Z,-3.04
2023-03-01T19:58:44.665Z,-3.06
2023-03-01T20:03:46.729Z,-3.10
2023-03-01T20:08:49.115Z,-3.11
2023-03-01T20:13:51.003Z,-2.94
2023-03-01T20:18:53.885Z,-2.87
2023-03-01T20:23:55.702Z,-3.01
2023-03-01T20:28:57.509Z,-3.14
2023-03-01T20:34:00.003Z,-3.29
2023-03-01T20:39:01.794Z,-3.42
2023-03-01T20:44:06.576Z,-3.42
2023-03-01T20:49:08.442Z,-3.37
2023-03-01T20:54:10.827Z,-3.31
2023-03-01T20:59:13.096Z,-3.35
2023-03-01T21:04:17.989Z,-3.40
2023-03-01T21:09:19.928Z,-3.47
2023-03-01T21:14:22.587Z,-3.54
2023-03-01T21:19:25.936Z,-3.58
2023-03-01T21:24:27.890Z,-3.64
2023-03-01T21:29:29.727Z,-3.68
2023-03-01T21:34:31.550Z,-3.71
2023-03-01T21:39:34.243Z,-3.80
2023-03-01T21:44:36.239Z,-3.82
2023-03-01T21:49:38.344Z,-3.90
2023-03-01T21:54:40.143Z,-3.90
2023-03-01T21:59:41.962Z,-3.94
2023-03-01T22:04:43.845Z,-3.93
2023-03-01T22:09:45.644Z,-3.96
2023-03-01T22:14:47.451Z,-3.95
2023-03-01T22:19:49.254Z,-3.92
2023-03-01T22:24:51.053Z,-3.99
2023-03-01T22:29:52.821Z,-4.02
2023-03-01T22:34:54.677Z,-4.09
2023-03-01T22:39:57.489Z,-4.14
2023-03-01T22:44:59.599Z,-4.11
2023-03-01T22:50:01.405Z,-4.08
2023-03-01T22:55:03.313Z,-4.13
2023-03-01T23:00:13.201Z,-4.09
2023-03-01T23:05:15.132Z,-4.16
2023-03-01T23:10:16.987Z,-4.29
2023-03-01T23:15:18.879Z,-4.41
2023-03-01T23:20:21.500Z,-4.51
2023-03-01T23:25:23.310Z,-4.48
2023-03-01T23:30:25.100Z,-4.47
2023-03-01T23:35:27.401Z,-4.44
2023-03-01T23:40:29.194Z,-4.46
2023-03-01T23:45:30.985Z,-4.47
2023-03-01T23:50:41.732Z,-4.42
2023-03-01T23:55:53.909Z,-4.39
